sensor_id;sensor_type;location;lat;lon;timestamp;P1;durP1;ratioP1;P2;durP2;ratioP2
6193;SDS011;3130;41.564;23.280;2023-03-01T00:00:54;2.37;;;2.17;;
6193;SDS011;3130;41.564;23.280;2023-03-01T00:03:27;2.47;;;2.17;;
6193;SDS011;3130;41.564;23.280;2023-03-01T00:05:54;3.00;;;2.70;;
6193;SDS011;3130;41.564;23.280;2023-03-01T00:08:22;3.63;;;2.40;;
6193;SDS011;3130;41.564;23.280;2023-03-01T00:10:50;2.17;;;1.90;;
6193;SDS011;3130;41.564;23.280;2023-03-01T00:13:26;2.20;;;2.10;;
6193;SDS011;3130;41.564;23.280;2023-03-01T00:15:53;2.80;;;2.37;;
6193;SDS011;3130;41.564;23.280;2023-03-01T00:18:20;2.07;;;1.97;;
6193;SDS011;3130;41.564;23.280;2023-03-01T00:20:51;2.27;;;2.07;;
6193;SDS011;3130;41.564;23.280;2023-03-01T00:23:19;3.77;;;2.00;;
6193;SDS011;3130;41.564;23.280;2023-03-01T00:25:48;2.10;;;2.00;;
6193;SDS011;3130;41.564;23.280;2023-03-01T00:28:16;1.97;;;1.83;;
6193;SDS011;3130;41.564;23.280;2023-03-01T00:30:43;2.20;;;2.10;;
6193;SDS011;3130;41.564;23.280;2023-03-01T00:33:10;1.83;;;1.73;;
6193;SDS011;3130;41.564;23.280;2023-03-01T00:35:37;2.37;;;1.93;;
6193;SDS011;3130;41.564;23.280;2023-03-01T00:38:05;2.93;;;1.90;;
6193;SDS011;3130;41.564;23.280;2023-03-01T00:40:33;2.03;;;1.77;;
6193;SDS011;3130;41.564;23.280;2023-03-01T00:43:03;3.27;;;2.63;;
6193;SDS011;3130;41.564;23.280;2023-03-01T00:45:31;3.13;;;2.40;;
6193;SDS011;3130;41.564;23.280;2023-03-01T00:48:00;2.70;;;2.17;;
6193;SDS011;3130;41.564;23.280;2023-03-01T00:50:27;1.93;;;1.83;;
6193;SDS011;3130;41.564;23.280;2023-03-01T00:52:55;3.00;;;2.00;;
6193;SDS011;3130;41.564;23.280;2023-03-01T00:55:22;3.77;;;2.17;;
6193;SDS011;3130;41.564;23.280;2023-03-01T00:57:51;2.00;;;1.90;;
6193;SDS011;3130;41.564;23.280;2023-03-01T01:00:20;2.23;;;2.03;;
6193;SDS011;3130;41.564;23.280;2023-03-01T01:02:48;2.30;;;2.10;;
6193;SDS011;3130;41.564;23.280;2023-03-01T01:05:15;2.43;;;2.27;;
6193;SDS011;3130;41.564;23.280;2023-03-01T01:07:46;1.90;;;1.80;;
6193;SDS011;3130;41.564;23.280;2023-03-01T01:10:13;2.63;;;2.17;;
6193;SDS011;3130;41.564;23.280;2023-03-01T01:12:42;1.87;;;1.77;;
6193;SDS011;3130;41.564;23.280;2023-03-01T01:15:10;1.63;;;1.50;;
6193;SDS011;3130;41.564;23.280;2023-03-01T01:17:40;1.93;;;1.83;;
6193;SDS011;3130;41.564;23.280;2023-03-01T01:20:08;2.43;;;2.23;;
6193;SDS011;3130;41.564;23.280;2023-03-01T01:22:36;3.17;;;2.80;;
6193;SDS011;3130;41.564;23.280;2023-03-01T01:25:03;3.20;;;2.90;;
6193;SDS011;3130;41.564;23.280;2023-03-01T01:27:30;5.20;;;4.30;;
6193;SDS011;3130;41.564;23.280;2023-03-01T01:29:57;5.37;;;4.13;;
6193;SDS011;3130;41.564;23.280;2023-03-01T01:32:24;6.37;;;4.60;;
6193;SDS011;3130;41.564;23.280;2023-03-01T01:34:53;5.43;;;4.67;;
6193;SDS011;3130;41.564;23.280;2023-03-01T01:37:20;5.53;;;4.57;;
6193;SDS011;3130;41.564;23.280;2023-03-01T01:39:48;5.20;;;4.53;;
6193;SDS011;3130;41.564;23.280;2023-03-01T01:42:15;5.60;;;4.17;;
6193;SDS011;3130;41.564;23.280;2023-03-01T01:44:44;5.60;;;4.57;;
6193;SDS011;3130;41.564;23.280;2023-03-01T01:47:13;6.07;;;5.40;;
6193;SDS011;3130;41.564;23.280;2023-03-01T01:49:44;8.90;;;4.33;;
6193;SDS011;3130;41.564;23.280;2023-03-01T01:52:16;4.87;;;4.30;;
6193;SDS011;3130;41.564;23.280;2023-03-01T01:54:47;5.50;;;4.67;;
6193;SDS011;3130;41.564;23.280;2023-03-01T01:57:18;8.30;;;4.37;;
6193;SDS011;3130;41.564;23.280;2023-03-01T01:59:48;5.10;;;4.10;;
6193;SDS011;3130;41.564;23.280;2023-03-01T02:02:18;6.70;;;4.03;;
6193;SDS011;3130;41.564;23.280;2023-03-01T02:04:46;5.83;;;4.67;;
6193;SDS011;3130;41.564;23.280;2023-03-01T02:07:17;6.97;;;5.40;;
6193;SDS011;3130;41.564;23.280;2023-03-01T02:09:47;5.57;;;4.33;;
6193;SDS011;3130;41.564;23.280;2023-03-01T02:12:18;6.57;;;4.73;;
6193;SDS011;3130;41.564;23.280;2023-03-01T02:14:48;6.93;;;4.90;;
6193;SDS011;3130;41.564;23.280;2023-03-01T02:17:16;10.93;;;5.80;;
6193;SDS011;3130;41.564;23.280;2023-03-01T02:19:47;5.57;;;4.43;;
6193;SDS011;3130;41.564;23.280;2023-03-01T02:22:28;7.60;;;6.37;;
6193;SDS011;3130;41.564;23.280;2023-03-01T02:25:00;6.90;;;5.63;;
6193;SDS011;3130;41.564;23.280;2023-03-01T02:27:38;7.93;;;6.37;;
6193;SDS011;3130;41.564;23.280;2023-03-01T02:30:16;7.57;;;6.77;;
6193;SDS011;3130;41.564;23.280;2023-03-01T02:32:44;8.07;;;7.17;;
6193;SDS011;3130;41.564;23.280;2023-03-01T02:35:13;11.50;;;7.43;;
6193;SDS011;3130;41.564;23.280;2023-03-01T02:37:42;9.70;;;7.23;;
6193;SDS011;3130;41.564;23.280;2023-03-01T02:40:11;9.83;;;6.97;;
6193;SDS011;3130;41.564;23.280;2023-03-01T02:42:45;8.53;;;6.70;;
6193;SDS011;3130;41.564;23.280;2023-03-01T02:45:18;6.23;;;5.57;;
6193;SDS011;3130;41.564;23.280;2023-03-01T02:47:45;6.87;;;5.73;;
6193;SDS011;3130;41.564;23.280;2023-03-01T02:50:15;6.47;;;4.93;;
6193;SDS011;3130;41.564;23.280;2023-03-01T02:52:53;6.00;;;4.77;;
6193;SDS011;3130;41.564;23.280;2023-03-01T02:55:25;5.83;;;4.60;;
6193;SDS011;3130;41.564;23.280;2023-03-01T02:57:52;5.33;;;4.67;;
6193;SDS011;3130;41.564;23.280;2023-03-01T03:00:24;5.93;;;4.90;;
6193;SDS011;3130;41.564;23.280;2023-03-01T03:02:58;7.40;;;4.50;;
6193;SDS011;3130;41.564;23.280;2023-03-01T03:05:26;8.37;;;5.37;;
6193;SDS011;3130;41.564;23.280;2023-03-01T03:07:55;7.03;;;4.87;;
6193;SDS011;3130;41.564;23.280;2023-03-01T03:10:24;6.77;;;5.00;;
6193;SDS011;3130;41.564;23.280;2023-03-01T03:12:54;7.03;;;5.00;;
6193;SDS011;3130;41.564;23.280;2023-03-01T03:15:24;6.80;;;4.37;;
6193;SDS011;3130;41.564;23.280;2023-03-01T03:17:52;11.23;;;5.00;;
6193;SDS011;3130;41.564;23.280;2023-03-01T03:20:20;5.90;;;4.43;;
6193;SDS011;3130;41.564;23.280;2023-03-01T03:22:50;5.30;;;4.77;;
6193;SDS011;3130;41.564;23.280;2023-03-01T03:25:19;5.53;;;4.63;;
6193;SDS011;3130;41.564;23.280;2023-03-01T03:27:48;5.80;;;4.30;;
6193;SDS011;3130;41.564;23.280;2023-03-01T03:30:22;5.03;;;4.53;;
6193;SDS011;3130;41.564;23.280;2023-03-01T03:32:52;6.43;;;4.93;;
6193;SDS011;3130;41.564;23.280;2023-03-01T03:35:20;7.30;;;4.40;;
6193;SDS011;3130;41.564;23.280;2023-03-01T03:37:49;6.60;;;4.00;;
6193;SDS011;3130;41.564;23.280;2023-03-01T03:40:32;4.33;;;3.90;;
6193;SDS011;3130;41.564;23.280;2023-03-01T03:43:01;7.60;;;4.87;;
6193;SDS011;3130;41.564;23.280;2023-03-01T03:45:30;7.83;;;4.77;;
6193;SDS011;3130;41.564;23.280;2023-03-01T03:48:15;5.17;;;4.50;;
6193;SDS011;3130;41.564;23.280;2023-03-01T03:50:46;13.10;;;6.23;;
6193;SDS011;3130;41.564;23.280;2023-03-01T03:53:14;5.47;;;4.63;;
6193;SDS011;3130;41.564;23.280;2023-03-01T03:55:41;7.77;;;5.13;;
6193;SDS011;3130;41.564;23.280;2023-03-01T03:58:09;7.50;;;5.87;;
6193;SDS011;3130;41.564;23.280;2023-03-01T04:03:26;5.07;;;4.00;;
6193;SDS011;3130;41.564;23.280;2023-03-01T04:05:56;6.87;;;4.43;;
6193;SDS011;3130;41.564;23.280;2023-03-01T04:08:23;5.30;;;4.77;;
6193;SDS011;3130;41.564;23.280;2023-03-01T04:10:52;6.63;;;4.17;;
6193;SDS011;3130;41.564;23.280;2023-03-01T04:13:25;5.77;;;4.60;;
6193;SDS011;3130;41.564;23.280;2023-03-01T04:15:52;5.83;;;5.00;;
6193;SDS011;3130;41.564;23.280;2023-03-01T04:18:22;5.17;;;4.63;;
6193;SDS011;3130;41.564;23.280;2023-03-01T04:20:50;5.47;;;4.57;;
6193;SDS011;3130;41.564;23.280;2023-03-01T04:23:20;6.37;;;4.93;;
6193;SDS011;3130;41.564;23.280;2023-03-01T04:25:48;6.83;;;4.60;;
6193;SDS011;3130;41.564;23.280;2023-03-01T04:28:20;5.60;;;4.90;;
6193;SDS011;3130;41.564;23.280;2023-03-01T04:30:49;7.47;;;4.20;;
6193;SDS011;3130;41.564;23.280;2023-03-01T04:33:17;7.50;;;5.63;;
6193;SDS011;3130;41.564;23.280;2023-03-01T04:35:46;6.67;;;4.93;;
6193;SDS011;3130;41.564;23.280;2023-03-01T04:38:14;7.27;;;4.60;;
6193;SDS011;3130;41.564;23.280;2023-03-01T04:40:42;6.20;;;4.80;;
6193;SDS011;3130;41.564;23.280;2023-03-01T04:43:09;5.80;;;4.77;;
6193;SDS011;3130;41.564;23.280;2023-03-01T04:45:37;8.77;;;5.60;;
6193;SDS011;3130;41.564;23.280;2023-03-01T04:48:04;8.03;;;5.80;;
6193;SDS011;3130;41.564;23.280;2023-03-01T04:50:31;6.67;;;5.17;;
6193;SDS011;3130;41.564;23.280;2023-03-01T04:53:00;7.10;;;5.30;;
6193;SDS011;3130;41.564;23.280;2023-03-01T04:55:28;9.90;;;5.53;;
6193;SDS011;3130;41.564;23.280;2023-03-01T04:57:55;7.50;;;5.40;;
6193;SDS011;3130;41.564;23.280;2023-03-01T05:00:22;6.87;;;5.30;;
6193;SDS011;3130;41.564;23.280;2023-03-01T05:02:50;5.87;;;5.13;;
6193;SDS011;3130;41.564;23.280;2023-03-01T05:05:23;7.23;;;5.73;;
6193;SDS011;3130;41.564;23.280;2023-03-01T05:07:53;6.73;;;5.00;;
6193;SDS011;3130;41.564;23.280;2023-03-01T05:10:22;7.77;;;4.47;;
6193;SDS011;3130;41.564;23.280;2023-03-01T05:12:50;5.87;;;5.23;;
6193;SDS011;3130;41.564;23.280;2023-03-01T05:15:18;10.23;;;6.57;;
6193;SDS011;3130;41.564;23.280;2023-03-01T05:17:47;7.17;;;6.33;;
6193;SDS011;3130;41.564;23.280;2023-03-01T05:20:14;7.23;;;5.93;;
6193;SDS011;3130;41.564;23.280;2023-03-01T05:22:41;11.00;;;6.47;;
6193;SDS011;3130;41.564;23.280;2023-03-01T05:25:09;8.93;;;6.60;;
6193;SDS011;3130;41.564;23.280;2023-03-01T05:27:37;6.80;;;6.10;;
6193;SDS011;3130;41.564;23.280;2023-03-01T05:30:05;9.20;;;7.03;;
6193;SDS011;3130;41.564;23.280;2023-03-01T05:32:40;7.07;;;5.37;;
6193;SDS011;3130;41.564;23.280;2023-03-01T05:35:09;10.27;;;5.40;;
6193;SDS011;3130;41.564;23.280;2023-03-01T05:37:39;7.03;;;5.83;;
6193;SDS011;3130;41.564;23.280;2023-03-01T05:40:09;6.67;;;5.13;;
6193;SDS011;3130;41.564;23.280;2023-03-01T05:42:45;6.20;;;5.60;;
6193;SDS011;3130;41.564;23.280;2023-03-01T05:45:14;7.17;;;5.67;;
6193;SDS011;3130;41.564;23.280;2023-03-01T05:47:43;9.50;;;6.13;;
6193;SDS011;3130;41.564;23.280;2023-03-01T05:50:12;7.87;;;5.60;;
6193;SDS011;3130;41.564;23.280;2023-03-01T05:52:44;6.93;;;5.67;;
6193;SDS011;3130;41.564;23.280;2023-03-01T05:55:12;9.37;;;6.43;;
6193;SDS011;3130;41.564;23.280;2023-03-01T05:57:39;8.30;;;5.93;;
6193;SDS011;3130;41.564;23.280;2023-03-01T06:00:08;10.33;;;7.70;;
6193;SDS011;3130;41.564;23.280;2023-03-01T06:02:36;10.07;;;7.20;;
6193;SDS011;3130;41.564;23.280;2023-03-01T06:05:04;10.60;;;7.40;;
6193;SDS011;3130;41.564;23.280;2023-03-01T06:07:32;10.17;;;7.27;;
6193;SDS011;3130;41.564;23.280;2023-03-01T06:09:59;11.03;;;7.37;;
6193;SDS011;3130;41.564;23.280;2023-03-01T06:12:27;14.00;;;7.70;;
6193;SDS011;3130;41.564;23.280;2023-03-01T06:14:57;13.37;;;7.77;;
6193;SDS011;3130;41.564;23.280;2023-03-01T06:17:25;10.80;;;6.70;;
6193;SDS011;3130;41.564;23.280;2023-03-01T06:19:55;9.90;;;7.87;;
6193;SDS011;3130;41.564;23.280;2023-03-01T06:22:22;8.93;;;7.83;;
6193;SDS011;3130;41.564;23.280;2023-03-01T06:24:49;8.60;;;6.73;;
6193;SDS011;3130;41.564;23.280;2023-03-01T06:27:16;7.67;;;6.30;;
6193;SDS011;3130;41.564;23.280;2023-03-01T06:29:43;9.23;;;6.23;;
6193;SDS011;3130;41.564;23.280;2023-03-01T06:32:10;6.90;;;5.40;;
6193;SDS011;3130;41.564;23.280;2023-03-01T06:34:38;7.53;;;5.40;;
6193;SDS011;3130;41.564;23.280;2023-03-01T06:37:06;7.87;;;5.87;;
6193;SDS011;3130;41.564;23.280;2023-03-01T06:39:33;11.10;;;6.87;;
6193;SDS011;3130;41.564;23.280;2023-03-01T06:42:00;7.83;;;6.17;;
6193;SDS011;3130;41.564;23.280;2023-03-01T06:44:27;14.73;;;7.97;;
6193;SDS011;3130;41.564;23.280;2023-03-01T06:46:55;12.57;;;6.60;;
6193;SDS011;3130;41.564;23.280;2023-03-01T06:49:22;16.53;;;6.40;;
6193;SDS011;3130;41.564;23.280;2023-03-01T06:51:50;7.67;;;5.50;;
6193;SDS011;3130;41.564;23.280;2023-03-01T06:54:17;9.17;;;5.17;;
6193;SDS011;3130;41.564;23.280;2023-03-01T06:56:47;22.37;;;5.70;;
6193;SDS011;3130;41.564;23.280;2023-03-01T06:59:14;6.33;;;4.77;;
6193;SDS011;3130;41.564;23.280;2023-03-01T07:01:42;7.17;;;5.73;;
6193;SDS011;3130;41.564;23.280;2023-03-01T07:04:09;9.63;;;5.60;;
6193;SDS011;3130;41.564;23.280;2023-03-01T07:06:36;14.73;;;7.07;;
6193;SDS011;3130;41.564;23.280;2023-03-01T07:09:05;8.83;;;5.37;;
6193;SDS011;3130;41.564;23.280;2023-03-01T07:11:35;10.77;;;7.07;;
6193;SDS011;3130;41.564;23.280;2023-03-01T07:14:02;14.67;;;5.70;;
6193;SDS011;3130;41.564;23.280;2023-03-01T07:16:29;8.70;;;4.93;;
6193;SDS011;3130;41.564;23.280;2023-03-01T07:18:56;10.00;;;7.13;;
6193;SDS011;3130;41.564;23.280;2023-03-01T07:21:24;6.27;;;4.70;;
6193;SDS011;3130;41.564;23.280;2023-03-01T07:23:51;34.10;;;21.73;;
6193;SDS011;3130;41.564;23.280;2023-03-01T07:26:20;15.20;;;8.80;;
6193;SDS011;3130;41.564;23.280;2023-03-01T07:28:48;6.80;;;6.07;;
6193;SDS011;3130;41.564;23.280;2023-03-01T07:31:15;9.90;;;8.43;;
6193;SDS011;3130;41.564;23.280;2023-03-01T07:33:42;10.30;;;5.13;;
6193;SDS011;3130;41.564;23.280;2023-03-01T07:36:09;9.30;;;5.87;;
6193;SDS011;3130;41.564;23.280;2023-03-01T07:38:37;9.97;;;6.23;;
6193;SDS011;3130;41.564;23.280;2023-03-01T07:41:04;9.23;;;5.10;;
6193;SDS011;3130;41.564;23.280;2023-03-01T07:43:33;12.60;;;6.80;;
6193;SDS011;3130;41.564;23.280;2023-03-01T07:46:01;7.40;;;5.83;;
6193;SDS011;3130;41.564;23.280;2023-03-01T07:48:29;5.77;;;4.67;;
6193;SDS011;3130;41.564;23.280;2023-03-01T07:51:00;9.63;;;6.67;;
6193;SDS011;3130;41.564;23.280;2023-03-01T07:53:28;9.10;;;6.00;;
6193;SDS011;3130;41.564;23.280;2023-03-01T07:56:03;6.33;;;3.93;;
6193;SDS011;3130;41.564;23.280;2023-03-01T07:58:35;5.00;;;4.40;;
6193;SDS011;3130;41.564;23.280;2023-03-01T08:01:03;4.50;;;4.00;;
6193;SDS011;3130;41.564;23.280;2023-03-01T08:03:31;5.33;;;4.17;;
6193;SDS011;3130;41.564;23.280;2023-03-01T08:05:58;7.37;;;4.57;;
6193;SDS011;3130;41.564;23.280;2023-03-01T08:08:26;9.17;;;6.23;;
6193;SDS011;3130;41.564;23.280;2023-03-01T08:10:55;10.33;;;7.00;;
6193;SDS011;3130;41.564;23.280;2023-03-01T08:13:23;7.20;;;5.63;;
6193;SDS011;3130;41.564;23.280;2023-03-01T08:15:52;8.63;;;5.87;;
6193;SDS011;3130;41.564;23.280;2023-03-01T08:18:19;6.00;;;4.60;;
6193;SDS011;3130;41.564;23.280;2023-03-01T08:20:47;4.57;;;3.43;;
6193;SDS011;3130;41.564;23.280;2023-03-01T08:23:14;5.13;;;4.03;;
6193;SDS011;3130;41.564;23.280;2023-03-01T08:25:41;6.90;;;4.70;;
6193;SDS011;3130;41.564;23.280;2023-03-01T08:28:08;7.23;;;3.67;;
6193;SDS011;3130;41.564;23.280;2023-03-01T08:30:36;4.97;;;4.53;;
6193;SDS011;3130;41.564;23.280;2023-03-01T08:33:04;8.67;;;4.23;;
6193;SDS011;3130;41.564;23.280;2023-03-01T08:35:31;4.80;;;4.27;;
6193;SDS011;3130;41.564;23.280;2023-03-01T08:37:58;7.17;;;4.70;;
6193;SDS011;3130;41.564;23.280;2023-03-01T08:40:25;4.13;;;3.73;;
6193;SDS011;3130;41.564;23.280;2023-03-01T08:42:53;5.37;;;3.93;;
6193;SDS011;3130;41.564;23.280;2023-03-01T08:45:20;6.30;;;4.10;;
6193;SDS011;3130;41.564;23.280;2023-03-01T08:47:47;4.00;;;3.70;;
6193;SDS011;3130;41.564;23.280;2023-03-01T08:50:16;5.10;;;3.93;;
6193;SDS011;3130;41.564;23.280;2023-03-01T08:52:43;4.13;;;3.37;;
6193;SDS011;3130;41.564;23.280;2023-03-01T08:55:11;8.53;;;3.40;;
6193;SDS011;3130;41.564;23.280;2023-03-01T08:57:40;4.93;;;3.67;;
6193;SDS011;3130;41.564;23.280;2023-03-01T09:00:07;9.73;;;5.50;;
6193;SDS011;3130;41.564;23.280;2023-03-01T09:02:36;4.67;;;3.93;;
6193;SDS011;3130;41.564;23.280;2023-03-01T09:05:04;6.43;;;4.77;;
6193;SDS011;3130;41.564;23.280;2023-03-01T09:07:33;5.47;;;4.20;;
6193;SDS011;3130;41.564;23.280;2023-03-01T09:10:01;3.87;;;2.93;;
6193;SDS011;3130;41.564;23.280;2023-03-01T09:12:28;6.10;;;5.03;;
6193;SDS011;3130;41.564;23.280;2023-03-01T09:14:55;6.47;;;4.13;;
6193;SDS011;3130;41.564;23.280;2023-03-01T09:17:22;7.00;;;3.87;;
6193;SDS011;3130;41.564;23.280;2023-03-01T09:19:50;7.80;;;3.83;;
6193;SDS011;3130;41.564;23.280;2023-03-01T09:22:17;4.17;;;3.47;;
6193;SDS011;3130;41.564;23.280;2023-03-01T09:24:47;5.03;;;4.47;;
6193;SDS011;3130;41.564;23.280;2023-03-01T09:27:14;9.63;;;4.37;;
6193;SDS011;3130;41.564;23.280;2023-03-01T09:29:43;5.53;;;4.87;;
6193;SDS011;3130;41.564;23.280;2023-03-01T09:32:10;8.67;;;4.33;;
6193;SDS011;3130;41.564;23.280;2023-03-01T09:34:38;5.73;;;4.13;;
6193;SDS011;3130;41.564;23.280;2023-03-01T09:37:19;4.83;;;4.10;;
6193;SDS011;3130;41.564;23.280;2023-03-01T09:39:48;5.77;;;4.07;;
6193;SDS011;3130;41.564;23.280;2023-03-01T09:42:15;5.33;;;3.90;;
6193;SDS011;3130;41.564;23.280;2023-03-01T09:44:43;6.93;;;3.87;;
6193;SDS011;3130;41.564;23.280;2023-03-01T09:47:18;9.40;;;4.80;;
6193;SDS011;3130;41.564;23.280;2023-03-01T09:49:48;4.83;;;4.00;;
6193;SDS011;3130;41.564;23.280;2023-03-01T09:52:26;8.27;;;4.20;;
6193;SDS011;3130;41.564;23.280;2023-03-01T09:55:01;4.10;;;3.03;;
6193;SDS011;3130;41.564;23.280;2023-03-01T09:57:38;10.53;;;4.27;;
6193;SDS011;3130;41.564;23.280;2023-03-01T10:00:14;7.07;;;3.90;;
6193;SDS011;3130;41.564;23.280;2023-03-01T10:02:47;4.23;;;3.83;;
6193;SDS011;3130;41.564;23.280;2023-03-01T10:05:30;4.20;;;3.67;;
6193;SDS011;3130;41.564;23.280;2023-03-01T10:08:14;10.03;;;7.40;;
6193;SDS011;3130;41.564;23.280;2023-03-01T10:10:56;6.03;;;4.60;;
6193;SDS011;3130;41.564;23.280;2023-03-01T10:13:26;4.93;;;3.80;;
6193;SDS011;3130;41.564;23.280;2023-03-01T10:16:01;5.73;;;4.13;;
6193;SDS011;3130;41.564;23.280;2023-03-01T10:18:35;6.07;;;4.40;;
6193;SDS011;3130;41.564;23.280;2023-03-01T10:21:08;5.60;;;3.40;;
6193;SDS011;3130;41.564;23.280;2023-03-01T10:23:43;7.30;;;4.13;;
6193;SDS011;3130;41.564;23.280;2023-03-01T10:26:19;5.40;;;4.10;;
6193;SDS011;3130;41.564;23.280;2023-03-01T10:29:15;5.30;;;3.40;;
6193;SDS011;3130;41.564;23.280;2023-03-01T10:31:51;8.20;;;4.17;;
6193;SDS011;3130;41.564;23.280;2023-03-01T10:34:32;7.97;;;4.40;;
6193;SDS011;3130;41.564;23.280;2023-03-01T10:37:04;10.27;;;4.50;;
6193;SDS011;3130;41.564;23.280;2023-03-01T10:39:37;7.70;;;3.83;;
6193;SDS011;3130;41.564;23.280;2023-03-01T10:42:22;5.40;;;3.60;;
6193;SDS011;3130;41.564;23.280;2023-03-01T10:44:57;6.73;;;4.07;;
6193;SDS011;3130;41.564;23.280;2023-03-01T10:47:28;6.47;;;4.30;;
6193;SDS011;3130;41.564;23.280;2023-03-01T10:49:57;4.83;;;4.33;;
6193;SDS011;3130;41.564;23.280;2023-03-01T10:52:30;3.97;;;2.87;;
6193;SDS011;3130;41.564;23.280;2023-03-01T10:58:11;6.27;;;3.60;;
6193;SDS011;3130;41.564;23.280;2023-03-01T11:00:47;9.37;;;4.47;;
6193;SDS011;3130;41.564;23.280;2023-03-01T11:03:18;5.93;;;4.40;;
6193;SDS011;3130;41.564;23.280;2023-03-01T11:05:53;9.40;;;5.10;;
6193;SDS011;3130;41.564;23.280;2023-03-01T11:08:32;4.53;;;4.07;;
6193;SDS011;3130;41.564;23.280;2023-03-01T11:11:18;7.47;;;3.77;;
6193;SDS011;3130;41.564;23.280;2023-03-01T11:13:54;4.97;;;4.00;;
6193;SDS011;3130;41.564;23.280;2023-03-01T11:16:27;5.07;;;4.20;;
6193;SDS011;3130;41.564;23.280;2023-03-01T11:18:59;7.47;;;4.57;;
6193;SDS011;3130;41.564;23.280;2023-03-01T11:21:33;6.30;;;5.40;;
6193;SDS011;3130;41.564;23.280;2023-03-01T11:24:03;9.23;;;4.30;;
6193;SDS011;3130;41.564;23.280;2023-03-01T11:26:34;8.53;;;5.10;;
6193;SDS011;3130;41.564;23.280;2023-03-01T11:29:07;9.10;;;5.50;;
6193;SDS011;3130;41.564;23.280;2023-03-01T11:31:43;7.77;;;6.00;;
6193;SDS011;3130;41.564;23.280;2023-03-01T11:34:14;8.40;;;5.80;;
6193;SDS011;3130;41.564;23.280;2023-03-01T11:36:47;5.43;;;4.73;;
6193;SDS011;3130;41.564;23.280;2023-03-01T11:39:22;7.13;;;5.10;;
6193;SDS011;3130;41.564;23.280;2023-03-01T11:41:59;5.73;;;4.90;;
6193;SDS011;3130;41.564;23.280;2023-03-01T11:44:33;6.57;;;5.23;;
6193;SDS011;3130;41.564;23.280;2023-03-01T11:50:09;10.23;;;5.33;;
6193;SDS011;3130;41.564;23.280;2023-03-01T11:52:48;7.07;;;4.33;;
6193;SDS011;3130;41.564;23.280;2023-03-01T11:55:30;7.33;;;4.67;;
6193;SDS011;3130;41.564;23.280;2023-03-01T11:58:14;9.80;;;4.90;;
6193;SDS011;3130;41.564;23.280;2023-03-01T12:00:58;9.23;;;4.43;;
6193;SDS011;3130;41.564;23.280;2023-03-01T12:03:36;7.77;;;5.57;;
6193;SDS011;3130;41.564;23.280;2023-03-01T12:06:42;6.13;;;4.33;;
6193;SDS011;3130;41.564;23.280;2023-03-01T12:09:26;5.53;;;4.33;;
6193;SDS011;3130;41.564;23.280;2023-03-01T12:12:27;5.27;;;4.30;;
6193;SDS011;3130;41.564;23.280;2023-03-01T12:15:07;7.17;;;4.60;;
6193;SDS011;3130;41.564;23.280;2023-03-01T12:18:09;10.13;;;4.57;;
6193;SDS011;3130;41.564;23.280;2023-03-01T12:20:51;13.13;;;5.00;;
6193;SDS011;3130;41.564;23.280;2023-03-01T12:26:17;8.63;;;4.90;;
6193;SDS011;3130;41.564;23.280;2023-03-01T12:28:52;9.87;;;6.67;;
6193;SDS011;3130;41.564;23.280;2023-03-01T12:31:41;7.20;;;5.00;;
6193;SDS011;3130;41.564;23.280;2023-03-01T12:34:19;8.97;;;5.67;;
6193;SDS011;3130;41.564;23.280;2023-03-01T12:37:03;10.40;;;7.30;;
6193;SDS011;3130;41.564;23.280;2023-03-01T12:39:50;6.80;;;5.40;;
6193;SDS011;3130;41.564;23.280;2023-03-01T12:42:30;6.27;;;5.63;;
6193;SDS011;3130;41.564;23.280;2023-03-01T12:48:01;7.57;;;5.50;;
6193;SDS011;3130;41.564;23.280;2023-03-01T12:50:49;12.77;;;7.20;;
6193;SDS011;3130;41.564;23.280;2023-03-01T12:53:21;13.63;;;7.87;;
6193;SDS011;3130;41.564;23.280;2023-03-01T12:55:50;11.87;;;7.40;;
6193;SDS011;3130;41.564;23.280;2023-03-01T12:58:24;12.90;;;8.57;;
6193;SDS011;3130;41.564;23.280;2023-03-01T13:03:48;8.70;;;6.77;;
6193;SDS011;3130;41.564;23.280;2023-03-01T13:06:40;12.23;;;8.23;;
6193;SDS011;3130;41.564;23.280;2023-03-01T13:09:16;26.60;;;10.83;;
6193;SDS011;3130;41.564;23.280;2023-03-01T13:11:50;18.03;;;12.13;;
6193;SDS011;3130;41.564;23.280;2023-03-01T13:20:15;16.53;;;7.93;;
6193;SDS011;3130;41.564;23.280;2023-03-01T13:22:46;10.23;;;5.23;;
6193;SDS011;3130;41.564;23.280;2023-03-01T13:25:15;11.63;;;8.27;;
6193;SDS011;3130;41.564;23.280;2023-03-01T13:27:45;14.17;;;6.80;;
6193;SDS011;3130;41.564;23.280;2023-03-01T13:36:45;7.73;;;6.17;;
6193;SDS011;3130;41.564;23.280;2023-03-01T13:39:29;6.27;;;5.13;;
6193;SDS011;3130;41.564;23.280;2023-03-01T13:41:59;11.07;;;6.17;;
6193;SDS011;3130;41.564;23.280;2023-03-01T13:44:28;7.93;;;7.07;;
6193;SDS011;3130;41.564;23.280;2023-03-01T13:46:59;13.50;;;7.87;;
6193;SDS011;3130;41.564;23.280;2023-03-01T13:49:42;11.10;;;7.97;;
6193;SDS011;3130;41.564;23.280;2023-03-01T13:55:14;7.50;;;5.27;;
6193;SDS011;3130;41.564;23.280;2023-03-01T13:57:45;10.63;;;5.53;;
6193;SDS011;3130;41.564;23.280;2023-03-01T14:00:26;7.57;;;5.53;;
6193;SDS011;3130;41.564;23.280;2023-03-01T14:02:59;10.40;;;6.67;;
6193;SDS011;3130;41.564;23.280;2023-03-01T14:05:29;6.97;;;5.50;;
6193;SDS011;3130;41.564;23.280;2023-03-01T14:07:56;13.70;;;7.50;;
6193;SDS011;3130;41.564;23.280;2023-03-01T14:10:35;6.80;;;6.10;;
6193;SDS011;3130;41.564;23.280;2023-03-01T14:13:18;12.30;;;6.13;;
6193;SDS011;3130;41.564;23.280;2023-03-01T14:16:04;11.80;;;6.67;;
6193;SDS011;3130;41.564;23.280;2023-03-01T14:18:47;9.43;;;7.30;;
6193;SDS011;3130;41.564;23.280;2023-03-01T14:21:20;10.40;;;7.40;;
6193;SDS011;3130;41.564;23.280;2023-03-01T14:23:47;7.50;;;6.07;;
6193;SDS011;3130;41.564;23.280;2023-03-01T14:26:21;7.97;;;5.57;;
6193;SDS011;3130;41.564;23.280;2023-03-01T14:28:49;7.23;;;5.57;;
6193;SDS011;3130;41.564;23.280;2023-03-01T14:31:31;8.83;;;5.90;;
6193;SDS011;3130;41.564;23.280;2023-03-01T14:34:02;10.20;;;6.80;;
6193;SDS011;3130;41.564;23.280;2023-03-01T14:36:30;14.50;;;8.83;;
6193;SDS011;3130;41.564;23.280;2023-03-01T14:38:59;13.43;;;9.50;;
6193;SDS011;3130;41.564;23.280;2023-03-01T14:41:34;21.33;;;11.23;;
6193;SDS011;3130;41.564;23.280;2023-03-01T14:44:03;14.87;;;10.13;;
6193;SDS011;3130;41.564;23.280;2023-03-01T14:46:33;16.53;;;8.93;;
6193;SDS011;3130;41.564;23.280;2023-03-01T14:49:03;16.13;;;11.17;;
6193;SDS011;3130;41.564;23.280;2023-03-01T14:51:36;15.97;;;9.87;;
6193;SDS011;3130;41.564;23.280;2023-03-01T14:54:05;15.93;;;11.50;;
6193;SDS011;3130;41.564;23.280;2023-03-01T14:56:46;10.53;;;8.07;;
6193;SDS011;3130;41.564;23.280;2023-03-01T14:59:14;7.33;;;6.47;;
6193;SDS011;3130;41.564;23.280;2023-03-01T15:01:41;9.83;;;7.50;;
6193;SDS011;3130;41.564;23.280;2023-03-01T15:04:11;13.07;;;9.00;;
6193;SDS011;3130;41.564;23.280;2023-03-01T15:06:39;12.67;;;9.70;;
6193;SDS011;3130;41.564;23.280;2023-03-01T15:09:11;15.60;;;10.40;;
6193;SDS011;3130;41.564;23.280;2023-03-01T15:11:41;12.00;;;9.13;;
6193;SDS011;3130;41.564;23.280;2023-03-01T15:14:27;13.17;;;9.57;;
6193;SDS011;3130;41.564;23.280;2023-03-01T15:17:04;9.90;;;8.10;;
6193;SDS011;3130;41.564;23.280;2023-03-01T15:19:41;12.37;;;8.00;;
6193;SDS011;3130;41.564;23.280;2023-03-01T15:22:15;11.50;;;8.13;;
6193;SDS011;3130;41.564;23.280;2023-03-01T15:24:48;13.93;;;8.83;;
6193;SDS011;3130;41.564;23.280;2023-03-01T15:27:20;11.80;;;7.87;;
6193;SDS011;3130;41.564;23.280;2023-03-01T15:29:51;11.00;;;9.30;;
6193;SDS011;3130;41.564;23.280;2023-03-01T15:32:25;12.20;;;8.70;;
6193;SDS011;3130;41.564;23.280;2023-03-01T15:34:54;10.67;;;9.50;;
6193;SDS011;3130;41.564;23.280;2023-03-01T15:37:36;17.90;;;11.63;;
6193;SDS011;3130;41.564;23.280;2023-03-01T15:40:17;19.43;;;11.27;;
6193;SDS011;3130;41.564;23.280;2023-03-01T15:42:49;16.33;;;12.60;;
6193;SDS011;3130;41.564;23.280;2023-03-01T15:45:25;10.77;;;8.83;;
6193;SDS011;3130;41.564;23.280;2023-03-01T15:47:54;21.93;;;14.57;;
6193;SDS011;3130;41.564;23.280;2023-03-01T15:50:24;19.13;;;11.47;;
6193;SDS011;3130;41.564;23.280;2023-03-01T15:52:54;12.60;;;11.07;;
6193;SDS011;3130;41.564;23.280;2023-03-01T15:55:24;18.67;;;10.30;;